Time;durP1;ratioP1;P1;durP2;ratioP2;P2;SDS_P1;SDS_P2;PMS_P1;PMS_P2;Temp;Humidity;BMP_temperature;BMP_pressure;BME280_temperature;BME280_humidity;BME280_pressure;Samples;Min_cycle;Max_cycle;Signal;HPM_P1;HPM_P2
2021/09/15 00:01:47;;;;;;;1999.90;999.90;;;;;;;;;;4971178;28;20239;-72
2021/09/15 00:04:32;;;;;;;1999.90;999.90;;;;;;;;;;4970305;28;20215;-73
2021/09/15 00:07:17;;;;;;;1999.90;999.90;;;;;;;;;;4970748;28;20221;-73
2021/09/15 00:10:02;;;;;;;1999.90;999.90;;;;;;;;;;4965883;28;20586;-73
2021/09/15 00:12:47;;;;;;;1999.90;999.90;;;;;;;;;;4970147;28;20228;-73
2021/09/15 00:15:32;;;;;;;1999.90;999.90;;;;;;;;;;4970255;28;20209;-72
2021/09/15 00:18:19;;;;;;;1999.90;999.90;;;;;;;;;;4962502;28;20215;-73
2021/09/15 00:21:06;;;;;;;1999.90;999.90;;;;;;;;;;4970943;28;20600;-73
2021/09/15 00:23:51;;;;;;;1999.90;999.90;;;;;;;;;;4970811;28;20221;-72
2021/09/15 00:26:35;;;;;;;1999.90;999.90;;;;;;;;;;4971748;28;20215;-73
2021/09/15 00:29:20;;;;;;;1999.90;999.90;;;;;;;;;;4971084;28;20223;-72
2021/09/15 00:32:06;;;;;;;1999.90;999.90;;;;;;;;;;4970580;28;20232;-73
2021/09/15 00:34:52;;;;;;;1999.90;999.90;;;;;;;;;;4970933;28;20216;-73
2021/09/15 00:37:37;;;;;;;1999.90;999.90;;;;;;;;;;4971805;28;20299;-72
2021/09/15 00:40:22;;;;;;;1999.90;999.90;;;;;;;;;;4968685;28;20994;-73
2021/09/15 00:43:08;;;;;;;1999.90;999.90;;;;;;;;;;4963115;28;20244;-72
2021/09/15 00:45:53;;;;;;;1999.90;999.90;;;;;;;;;;4961199;28;20219;-73
2021/09/15 00:48:37;;;;;;;1999.90;999.90;;;;;;;;;;4962420;28;20237;-73
2021/09/15 00:51:24;;;;;;;1999.90;999.90;;;;;;;;;;4970570;28;20236;-72
2021/09/15 00:54:10;;;;;;;1999.90;999.90;;;;;;;;;;4973280;28;20631;-73
2021/09/15 00:56:55;;;;;;;1999.90;999.90;;;;;;;;;;4967560;28;20210;-73
2021/09/15 00:59:40;;;;;;;1999.90;999.90;;;;;;;;;;4973850;28;20303;-72
2021/09/15 01:02:25;;;;;;;1999.90;999.90;;;;;;;;;;4955723;28;20232;-73
2021/09/15 01:05:10;;;;;;;1999.90;999.90;;;;;;;;;;4953933;29;20796;-72
2021/09/15 01:07:57;;;;;;;1999.90;999.90;;;;;;;;;;4969152;28;20228;-72
2021/09/15 01:10:43;;;;;;;1999.90;999.90;;;;;;;;;;4969209;28;20216;-73
2021/09/15 01:13:28;;;;;;;1999.90;999.90;;;;;;;;;;4973373;28;20348;-72
2021/09/15 01:16:15;;;;;;;1999.90;999.90;;;;;;;;;;4972698;28;20200;-72
2021/09/15 01:19:00;;;;;;;1999.90;999.90;;;;;;;;;;4973662;28;20343;-73
2021/09/15 01:21:46;;;;;;;1999.90;999.90;;;;;;;;;;4973193;28;20275;-72
2021/09/15 01:24:32;;;;;;;1999.90;999.90;;;;;;;;;;4972713;28;20769;-74
2021/09/15 01:27:17;;;;;;;1999.90;999.90;;;;;;;;;;4970141;28;20212;-75
2021/09/15 01:30:02;;;;;;;1999.90;999.90;;;;;;;;;;4972322;28;20962;-74
2021/09/15 01:32:47;;;;;;;1999.90;999.90;;;;;;;;;;4973438;28;20311;-74
2021/09/15 01:35:32;;;;;;;1999.90;999.90;;;;;;;;;;4972443;28;20215;-73
2021/09/15 01:38:18;;;;;;;1999.90;999.90;;;;;;;;;;4973517;28;20601;-75
2021/09/15 01:41:03;;;;;;;1999.90;999.90;;;;;;;;;;4972959;28;20287;-74
2021/09/15 01:43:51;;;;;;;1999.90;999.90;;;;;;;;;;4973275;28;20684;-74
2021/09/15 01:46:36;;;;;;;1999.90;999.90;;;;;;;;;;4971043;28;20291;-74
2021/09/15 01:49:22;;;;;;;1999.90;999.90;;;;;;;;;;4972058;28;20294;-74
2021/09/15 01:52:08;;;;;;;1999.90;999.90;;;;;;;;;;4969353;28;20228;-74
2021/09/15 01:54:54;;;;;;;1999.90;999.90;;;;;;;;;;4972353;28;20208;-73
2021/09/15 01:57:39;;;;;;;1999.90;999.90;;;;;;;;;;4973073;28;20604;-74
2021/09/15 02:00:26;;;;;;;1999.90;999.90;;;;;;;;;;4971907;28;20526;-74
2021/09/15 02:03:11;;;;;;;1999.90;999.90;;;;;;;;;;4971780;28;20315;-74
2021/09/15 02:05:56;;;;;;;1999.90;999.90;;;;;;;;;;4973320;28;20561;-74
2021/09/15 02:08:41;;;;;;;1999.90;999.90;;;;;;;;;;4973945;28;20219;-74
2021/09/15 02:11:27;;;;;;;1999.90;999.90;;;;;;;;;;4973858;28;20271;-74
2021/09/15 02:14:12;;;;;;;1999.90;999.90;;;;;;;;;;4972907;28;20459;-74
2021/09/15 02:16:58;;;;;;;1999.90;999.90;;;;;;;;;;4973753;28;20698;-74
2021/09/15 02:19:43;;;;;;;1999.90;999.90;;;;;;;;;;4973684;28;20543;-74
2021/09/15 02:22:27;;;;;;;1999.90;999.90;;;;;;;;;;4973622;28;20228;-74
2021/09/15 02:25:12;;;;;;;1999.90;999.90;;;;;;;;;;4972895;28;20208;-74
2021/09/15 02:27:58;;;;;;;1999.90;999.90;;;;;;;;;;4973626;28;20273;-74
2021/09/15 02:30:43;;;;;;;1999.90;999.90;;;;;;;;;;4973679;28;20216;-74
2021/09/15 02:33:28;;;;;;;1999.90;999.90;;;;;;;;;;4973232;28;20348;-74
2021/09/15 02:36:13;;;;;;;1999.90;999.90;;;;;;;;;;4973199;28;20212;-74
2021/09/15 02:38:58;;;;;;;1999.90;999.90;;;;;;;;;;4972756;28;20409;-74
2021/09/15 02:41:43;;;;;;;1999.90;999.90;;;;;;;;;;4973114;28;20292;-74
2021/09/15 02:44:29;;;;;;;1999.90;999.90;;;;;;;;;;4972652;28;20704;-74
2021/09/15 02:47:15;;;;;;;1999.90;999.90;;;;;;;;;;4973336;28;20298;-74
2021/09/15 02:49:59;;;;;;;1999.90;999.90;;;;;;;;;;4973061;28;20216;-74
2021/09/15 02:52:44;;;;;;;1999.90;999.90;;;;;;;;;;4973064;28;20227;-74
2021/09/15 02:55:29;;;;;;;1999.90;999.90;;;;;;;;;;4972566;28;20682;-74
2021/09/15 02:58:15;;;;;;;1999.90;999.90;;;;;;;;;;4973117;28;20287;-74
2021/09/15 03:01:02;;;;;;;1999.90;999.90;;;;;;;;;;4973045;28;20211;-74
2021/09/15 03:03:47;;;;;;;1999.90;999.90;;;;;;;;;;4972790;28;20574;-74
2021/09/15 03:06:32;;;;;;;1999.90;999.90;;;;;;;;;;4972708;28;20199;-74
2021/09/15 03:09:17;;;;;;;1999.90;999.90;;;;;;;;;;4972908;28;20208;-74
2021/09/15 03:12:02;;;;;;;1999.90;999.90;;;;;;;;;;4972809;28;20231;-74
2021/09/15 03:14:46;;;;;;;1999.90;999.90;;;;;;;;;;4971451;28;20227;-74
2021/09/15 03:17:33;;;;;;;1999.90;999.90;;;;;;;;;;4972556;28;20579;-74
2021/09/15 03:20:17;;;;;;;1999.90;999.90;;;;;;;;;;4972687;28;20244;-74
2021/09/15 03:23:02;;;;;;;1999.90;999.90;;;;;;;;;;4972627;28;20615;-74
2021/09/15 03:25:47;;;;;;;1999.90;999.90;;;;;;;;;;4972123;28;20193;-74
2021/09/15 03:28:32;;;;;;;1999.90;999.90;;;;;;;;;;4972585;28;20299;-74
2021/09/15 03:31:17;;;;;;;1999.90;999.90;;;;;;;;;;4972645;28;20733;-74
2021/09/15 03:34:03;;;;;;;1999.90;999.90;;;;;;;;;;4971515;28;20295;-73
2021/09/15 03:36:48;;;;;;;1999.90;999.90;;;;;;;;;;4972626;28;20212;-74
2021/09/15 03:39:33;;;;;;;1999.90;999.90;;;;;;;;;;4972649;28;20207;-74
2021/09/15 03:42:18;;;;;;;1999.90;999.90;;;;;;;;;;4973105;28;20231;-74
2021/09/15 03:45:03;;;;;;;1999.90;999.90;;;;;;;;;;4972045;28;20271;-74
2021/09/15 03:47:48;;;;;;;1999.90;999.90;;;;;;;;;;4972522;28;20207;-74
2021/09/15 03:50:35;;;;;;;1999.90;999.90;;;;;;;;;;4971605;28;20418;-74
2021/09/15 03:53:20;;;;;;;1999.90;999.90;;;;;;;;;;4972363;28;20224;-74
2021/09/15 03:56:05;;;;;;;1999.90;999.90;;;;;;;;;;4971782;28;20207;-74
2021/09/15 03:58:50;;;;;;;1999.90;999.90;;;;;;;;;;4972052;28;20255;-74
2021/09/15 04:01:36;;;;;;;1999.90;999.90;;;;;;;;;;4971817;28;20733;-74
2021/09/15 04:04:21;;;;;;;1999.90;999.90;;;;;;;;;;4971173;28;20211;-74
2021/09/15 04:07:08;;;;;;;1999.90;999.90;;;;;;;;;;4971999;28;20619;-74
2021/09/15 04:09:52;;;;;;;1999.90;999.90;;;;;;;;;;4972006;28;20275;-74
2021/09/15 04:12:37;;;;;;;1999.90;999.90;;;;;;;;;;4971979;28;20232;-74
2021/09/15 04:15:22;;;;;;;1999.90;999.90;;;;;;;;;;4971167;28;20283;-74
2021/09/15 04:18:07;;;;;;;1999.90;999.90;;;;;;;;;;4971832;28;20216;-74
2021/09/15 04:20:52;;;;;;;1999.90;999.90;;;;;;;;;;4971807;28;20212;-74
2021/09/15 04:23:47;;;;;;;1999.90;999.90;;;;;;;;;;4971746;28;20207;-74
2021/09/15 04:32:43;;;;;;;1999.90;999.90;;;;;;;;;;4975244;28;20718;-74
2021/09/15 04:35:28;;;;;;;1999.90;999.90;;;;;;;;;;4970593;28;20430;-74
2021/09/15 04:38:13;;;;;;;1999.90;999.90;;;;;;;;;;4971918;28;20324;-74
2021/09/15 04:40:59;;;;;;;1999.90;999.90;;;;;;;;;;4975488;28;20667;-74
2021/09/15 04:43:44;;;;;;;1999.90;999.90;;;;;;;;;;4975373;28;20216;-74
2021/09/15 04:46:29;;;;;;;1999.90;999.90;;;;;;;;;;4960104;28;20691;-74
2021/09/15 04:49:14;;;;;;;1999.90;999.90;;;;;;;;;;4964725;28;20212;-74
2021/09/15 04:51:59;;;;;;;1999.90;999.90;;;;;;;;;;4975403;28;20227;-74
2021/09/15 04:54:44;;;;;;;1999.90;999.90;;;;;;;;;;4973033;28;20223;-74
2021/09/15 04:57:30;;;;;;;1999.90;999.90;;;;;;;;;;4974473;28;20208;-74
2021/09/15 05:00:15;;;;;;;1999.90;999.90;;;;;;;;;;4974843;28;20439;-73
2021/09/15 05:03:01;;;;;;;1999.90;999.90;;;;;;;;;;4975051;28;20741;-74
2021/09/15 05:05:46;;;;;;;1999.90;999.90;;;;;;;;;;4974345;28;20618;-74
2021/09/15 05:08:31;;;;;;;1999.90;999.90;;;;;;;;;;4966295;28;20213;-74
2021/09/15 05:11:16;;;;;;;1999.90;999.90;;;;;;;;;;4967554;28;20247;-74
2021/09/15 05:14:02;;;;;;;1999.90;999.90;;;;;;;;;;4973242;28;20230;-75
2021/09/15 05:16:47;;;;;;;1999.90;999.90;;;;;;;;;;4973787;28;20564;-74
2021/09/15 05:19:32;;;;;;;1999.90;999.90;;;;;;;;;;4968446;28;20702;-76
2021/09/15 05:22:17;;;;;;;1999.90;999.90;;;;;;;;;;4974010;28;20244;-74
2021/09/15 05:25:02;;;;;;;1999.90;999.90;;;;;;;;;;4972832;28;20286;-75
2021/09/15 05:27:48;;;;;;;1999.90;999.90;;;;;;;;;;4966479;28;20212;-76
2021/09/15 05:30:34;;;;;;;1999.90;999.90;;;;;;;;;;4973090;28;20212;-75
2021/09/15 05:33:19;;;;;;;1999.90;999.90;;;;;;;;;;4972990;28;20212;-73
2021/09/15 05:36:05;;;;;;;1999.90;999.90;;;;;;;;;;4968927;28;20718;-74
2021/09/15 05:38:50;;;;;;;1999.90;999.90;;;;;;;;;;4973325;28;20263;-74
2021/09/15 05:41:35;;;;;;;1999.90;999.90;;;;;;;;;;4972797;28;20232;-75
2021/09/15 05:44:20;;;;;;;1999.90;999.90;;;;;;;;;;4972214;28;20251;-74
2021/09/15 05:47:06;;;;;;;1999.90;999.90;;;;;;;;;;4971746;28;20407;-74
2021/09/15 05:49:51;;;;;;;1999.90;999.90;;;;;;;;;;4973406;28;20802;-74
2021/09/15 05:52:36;;;;;;;1999.90;999.90;;;;;;;;;;4972699;28;20315;-74
2021/09/15 05:55:21;;;;;;;1999.90;999.90;;;;;;;;;;4971975;28;20717;-76
2021/09/15 05:58:06;;;;;;;1999.90;999.90;;;;;;;;;;4972921;28;20215;-75
2021/09/15 06:00:51;;;;;;;1999.90;999.90;;;;;;;;;;4962566;28;20215;-77
2021/09/15 06:03:37;;;;;;;1999.90;999.90;;;;;;;;;;4972866;28;20219;-76
2021/09/15 06:06:22;;;;;;;1999.90;999.90;;;;;;;;;;4971689;28;20223;-76
2021/09/15 06:09:07;;;;;;;1999.90;999.90;;;;;;;;;;4971685;28;20224;-74
2021/09/15 06:11:52;;;;;;;1999.90;999.90;;;;;;;;;;4971505;28;20454;-74
2021/09/15 06:14:36;;;;;;;1999.90;999.90;;;;;;;;;;4973408;28;20315;-74
2021/09/15 06:17:21;;;;;;;1999.90;999.90;;;;;;;;;;4969436;28;20289;-74
2021/09/15 06:20:08;;;;;;;1999.90;999.90;;;;;;;;;;4961785;28;20300;-71
2021/09/15 06:22:54;;;;;;;1999.90;999.90;;;;;;;;;;4967850;28;20310;-71
2021/09/15 06:25:41;;;;;;;1999.90;999.90;;;;;;;;;;4968407;28;20200;-71
2021/09/15 06:28:26;;;;;;;1999.90;999.90;;;;;;;;;;4965850;28;20222;-71
2021/09/15 06:31:11;;;;;;;1999.90;999.90;;;;;;;;;;4970918;28;20306;-72
2021/09/15 06:33:56;;;;;;;1999.90;999.90;;;;;;;;;;4967642;28;20593;-73
2021/09/15 06:36:42;;;;;;;1999.90;999.90;;;;;;;;;;4971459;28;20713;-74
2021/09/15 06:39:27;;;;;;;1999.90;999.90;;;;;;;;;;4971311;28;20356;-73
2021/09/15 06:42:15;;;;;;;1999.90;999.90;;;;;;;;;;4964823;28;20622;-73
2021/09/15 06:45:00;;;;;;;1999.90;999.90;;;;;;;;;;4970531;28;20259;-72
2021/09/15 06:47:45;;;;;;;1999.90;999.90;;;;;;;;;;4969785;28;20287;-73
2021/09/15 06:50:30;;;;;;;1999.90;999.90;;;;;;;;;;4969735;28;20439;-74
2021/09/15 06:53:16;;;;;;;1999.90;999.90;;;;;;;;;;4969979;28;20279;-75
2021/09/15 06:56:01;;;;;;;1999.90;999.90;;;;;;;;;;4970468;28;20707;-74
2021/09/15 06:58:46;;;;;;;1999.90;999.90;;;;;;;;;;4969848;28;20285;-76
2021/09/15 07:01:31;;;;;;;1999.90;999.90;;;;;;;;;;4968940;28;20287;-72
2021/09/15 07:04:16;;;;;;;1999.90;999.90;;;;;;;;;;4967279;28;20204;-73
2021/09/15 07:07:01;;;;;;;1999.90;999.90;;;;;;;;;;4970320;28;20212;-72
2021/09/15 07:09:48;;;;;;;1999.90;999.90;;;;;;;;;;4970998;28;20283;-75
2021/09/15 07:12:33;;;;;;;1999.90;999.90;;;;;;;;;;4971558;28;20243;-72
2021/09/15 07:15:17;;;;;;;1999.90;999.90;;;;;;;;;;4968152;28;20957;-72
2021/09/15 07:18:02;;;;;;;1999.90;999.90;;;;;;;;;;4970628;28;20283;-72
2021/09/15 07:20:47;;;;;;;1999.90;999.90;;;;;;;;;;4970728;28;20216;-72
2021/09/15 07:23:32;;;;;;;1999.90;999.90;;;;;;;;;;4972616;28;20287;-73
2021/09/15 07:26:19;;;;;;;1999.90;999.90;;;;;;;;;;4969973;28;20342;-70
2021/09/15 07:29:04;;;;;;;1999.90;999.90;;;;;;;;;;4971526;28;20269;-70
2021/09/15 07:31:49;;;;;;;1999.90;999.90;;;;;;;;;;4969979;28;20237;-72
2021/09/15 07:34:34;;;;;;;1999.90;999.90;;;;;;;;;;4970448;28;20215;-71
2021/09/15 07:37:20;;;;;;;1999.90;999.90;;;;;;;;;;4967818;28;20214;-72
2021/09/15 07:40:05;;;;;;;1999.90;999.90;;;;;;;;;;4967785;28;20219;-72
2021/09/15 07:42:52;;;;;;;1999.90;999.90;;;;;;;;;;4970501;28;20237;-71
2021/09/15 07:45:37;;;;;;;1999.90;999.90;;;;;;;;;;4968841;28;20737;-72
2021/09/15 07:48:22;;;;;;;1999.90;999.90;;;;;;;;;;4968683;28;20221;-71
2021/09/15 07:51:07;;;;;;;1999.90;999.90;;;;;;;;;;4968623;28;20698;-71
2021/09/15 07:53:52;;;;;;;1999.90;999.90;;;;;;;;;;4970583;28;20294;-70
2021/09/15 07:56:37;;;;;;;1999.90;999.90;;;;;;;;;;4970933;28;20222;-70
2021/09/15 07:59:23;;;;;;;1999.90;999.90;;;;;;;;;;4968071;28;20323;-73
2021/09/15 08:02:08;;;;;;;1999.90;999.90;;;;;;;;;;4967962;28;20479;-70
2021/09/15 08:04:52;;;;;;;1999.90;999.90;;;;;;;;;;4971332;28;20209;-73
2021/09/15 08:07:38;;;;;;;1999.90;999.90;;;;;;;;;;4969364;28;20210;-73
2021/09/15 08:10:22;;;;;;;1999.90;999.90;;;;;;;;;;4969415;28;20767;-75
2021/09/15 08:13:07;;;;;;;1999.90;999.90;;;;;;;;;;4952422;29;20232;-74
2021/09/15 08:15:54;;;;;;;1999.90;999.90;;;;;;;;;;4960666;28;20615;-73
2021/09/15 08:18:39;;;;;;;1999.90;999.90;;;;;;;;;;4967367;28;20215;-73
2021/09/15 08:21:24;;;;;;;1999.90;999.90;;;;;;;;;;4966131;28;20357;-72
2021/09/15 08:24:09;;;;;;;1999.90;999.90;;;;;;;;;;4967574;28;20310;-74
2021/09/15 08:26:54;;;;;;;1999.90;999.90;;;;;;;;;;4965645;28;20966;-73
2021/09/15 08:29:39;;;;;;;1999.90;999.90;;;;;;;;;;4967010;28;20214;-73
2021/09/15 08:32:26;;;;;;;1999.90;999.90;;;;;;;;;;4970504;28;20228;-74
2021/09/15 08:35:11;;;;;;;1999.90;999.90;;;;;;;;;;4969512;28;20725;-73
2021/09/15 08:37:55;;;;;;;1999.90;999.90;;;;;;;;;;4962379;28;20303;-73
2021/09/15 08:40:41;;;;;;;1999.90;999.90;;;;;;;;;;4963711;28;20212;-76
2021/09/15 08:43:26;;;;;;;1999.90;999.90;;;;;;;;;;4965595;28;20443;-74
2021/09/15 08:46:12;;;;;;;1999.90;999.90;;;;;;;;;;4952331;28;20288;-73
2021/09/15 08:48:59;;;;;;;1999.90;999.90;;;;;;;;;;4969752;28;20296;-73
2021/09/15 08:51:44;;;;;;;1999.90;999.90;;;;;;;;;;4969166;28;20238;-74
2021/09/15 08:54:29;;;;;;;1999.90;999.90;;;;;;;;;;4963499;28;20218;-73
2021/09/15 08:57:14;;;;;;;1999.90;999.90;;;;;;;;;;4968696;28;20762;-71
2021/09/15 08:59:59;;;;;;;1999.90;999.90;;;;;;;;;;4964569;28;20222;-73
2021/09/15 09:02:45;;;;;;;1999.90;999.90;;;;;;;;;;4969658;28;20246;-70
2021/09/15 09:05:32;;;;;;;1999.90;999.90;;;;;;;;;;4965235;28;20227;-71
2021/09/15 09:08:23;;;;;;;1999.90;999.90;;;;;;;;;;4968000;28;20223;-73
2021/09/15 09:11:08;;;;;;;1999.90;999.90;;;;;;;;;;4966929;28;20208;-74
2021/09/15 09:13:54;;;;;;;1999.90;999.90;;;;;;;;;;4955364;29;20255;-75
2021/09/15 09:16:41;;;;;;;1999.90;999.90;;;;;;;;;;4970660;28;20306;-73
2021/09/15 09:19:29;;;;;;;1999.90;999.90;;;;;;;;;;4974181;28;20714;-74
2021/09/15 09:22:15;;;;;;;1999.90;999.90;;;;;;;;;;4971307;28;20227;-73
2021/09/15 09:25:00;;;;;;;1999.90;999.90;;;;;;;;;;4969833;28;20284;-73
2021/09/15 09:27:45;;;;;;;1999.90;999.90;;;;;;;;;;4971332;28;20633;-75
2021/09/15 09:30:31;;;;;;;1999.90;999.90;;;;;;;;;;4973807;28;20204;-75
2021/09/15 09:33:16;;;;;;;1999.90;999.90;;;;;;;;;;4974621;28;20232;-75
2021/09/15 09:36:04;;;;;;;1999.90;999.90;;;;;;;;;;4968940;28;20542;-72
2021/09/15 09:38:50;;;;;;;1999.90;999.90;;;;;;;;;;4972610;28;20295;-75
2021/09/15 09:41:35;;;;;;;1999.90;999.90;;;;;;;;;;4969443;28;20235;-75
2021/09/15 09:44:26;;;;;;;1999.90;999.90;;;;;;;;;;4970048;28;20285;-75
2021/09/15 09:47:17;;;;;;;1999.90;999.90;;;;;;;;;;4973050;28;20862;-75
2021/09/15 09:50:03;;;;;;;1999.90;999.90;;;;;;;;;;4973014;28;20236;-75
2021/09/15 09:52:52;;;;;;;1999.90;999.90;;;;;;;;;;4974185;28;20592;-75
2021/09/15 09:55:40;;;;;;;1999.90;999.90;;;;;;;;;;4972131;28;20283;-75
2021/09/15 09:58:26;;;;;;;1999.90;999.90;;;;;;;;;;4973280;28;20581;-74
2021/09/15 10:01:13;;;;;;;1999.90;999.90;;;;;;;;;;4972203;28;20208;-75
2021/09/15 10:04:00;;;;;;;1999.90;999.90;;;;;;;;;;4969090;28;20219;-75
2021/09/15 10:06:45;;;;;;;1999.90;999.90;;;;;;;;;;4970757;28;20211;-75
2021/09/15 10:09:30;;;;;;;1999.90;999.90;;;;;;;;;;4972072;28;20218;-75
2021/09/15 10:12:18;;;;;;;1999.90;999.90;;;;;;;;;;4971356;28;20328;-77
2021/09/15 10:15:03;;;;;;;1999.90;999.90;;;;;;;;;;4972125;28;20227;-75
2021/09/15 10:17:49;;;;;;;1999.90;999.90;;;;;;;;;;4971764;28;20291;-77
2021/09/15 10:20:35;;;;;;;1999.90;999.90;;;;;;;;;;4972249;28;20520;-77
2021/09/15 10:23:33;;;;;;;1999.90;999.90;;;;;;;;;;4972610;28;20332;-76
2021/09/15 10:26:25;;;;;;;1999.90;999.90;;;;;;;;;;4970987;28;20713;-76
2021/09/15 10:29:24;;;;;;;1999.90;999.90;;;;;;;;;;4973239;28;20331;-74
2021/09/15 10:32:10;;;;;;;1999.90;999.90;;;;;;;;;;4973387;28;20846;-75
2021/09/15 10:34:55;;;;;;;1999.90;999.90;;;;;;;;;;4972314;28;20196;-75
2021/09/15 10:37:50;;;;;;;1999.90;999.90;;;;;;;;;;4963789;28;20268;-72
2021/09/15 10:40:36;;;;;;;1999.90;999.90;;;;;;;;;;4952827;28;20208;-72
2021/09/15 10:43:41;;;;;;;1999.90;999.90;;;;;;;;;;4953158;29;20212;-72
2021/09/15 10:46:27;;;;;;;1999.90;999.90;;;;;;;;;;4952762;29;20325;-72
2021/09/15 10:49:31;;;;;;;1999.90;999.90;;;;;;;;;;4954006;29;20244;-74
2021/09/15 10:52:26;;;;;;;1999.90;999.90;;;;;;;;;;4953569;29;20553;-73
2021/09/15 10:55:15;;;;;;;1999.90;999.90;;;;;;;;;;4951736;29;20592;-74
2021/09/15 10:58:09;;;;;;;1999.90;999.90;;;;;;;;;;4953798;29;20292;-72
2021/09/15 11:00:55;;;;;;;1999.90;999.90;;;;;;;;;;4953617;29;20217;-72
2021/09/15 11:03:52;;;;;;;1999.90;999.90;;;;;;;;;;4953479;28;20662;-74
2021/09/15 11:06:37;;;;;;;1999.90;999.90;;;;;;;;;;4953577;29;20208;-73
2021/09/15 11:09:38;;;;;;;1999.90;999.90;;;;;;;;;;4954193;29;20201;-73
2021/09/15 11:12:38;;;;;;;1999.90;999.90;;;;;;;;;;4953435;29;20723;-73
2021/09/15 11:15:24;;;;;;;1999.90;999.90;;;;;;;;;;4952515;29;20255;-73
2021/09/15 11:18:15;;;;;;;1999.90;999.90;;;;;;;;;;4953525;29;20288;-73
2021/09/15 11:21:05;;;;;;;1999.90;999.90;;;;;;;;;;4953285;29;20217;-72
2021/09/15 11:23:52;;;;;;;1999.90;999.90;;;;;;;;;;4953228;29;20205;-71
2021/09/15 11:26:39;;;;;;;1999.90;999.90;;;;;;;;;;4953317;29;20754;-72
2021/09/15 11:29:38;;;;;;;1999.90;999.90;;;;;;;;;;4953180;29;20217;-72
2021/09/15 11:32:24;;;;;;;1999.90;999.90;;;;;;;;;;4953298;29;20348;-72
2021/09/15 11:35:09;;;;;;;1999.90;999.90;;;;;;;;;;4952202;28;20711;-73
2021/09/15 11:37:55;;;;;;;1999.90;999.90;;;;;;;;;;4951874;29;20413;-74
2021/09/15 11:40:40;;;;;;;1999.90;999.90;;;;;;;;;;4953300;29;20703;-73
2021/09/15 11:43:25;;;;;;;1999.90;999.90;;;;;;;;;;4953401;29;20299;-73
2021/09/15 11:46:10;;;;;;;1999.90;999.90;;;;;;;;;;4952396;29;20215;-72
2021/09/15 11:48:55;;;;;;;1999.90;999.90;;;;;;;;;;4953727;29;20216;-72
2021/09/15 11:51:40;;;;;;;1999.90;999.90;;;;;;;;;;4953074;29;20228;-72
2021/09/15 11:54:27;;;;;;;1999.90;999.90;;;;;;;;;;4952629;29;20248;-73
2021/09/15 11:57:12;;;;;;;1999.90;999.90;;;;;;;;;;4952961;29;20237;-72
2021/09/15 12:00:00;;;;;;;1999.90;999.90;;;;;;;;;;4952928;29;20699;-73
2021/09/15 12:02:46;;;;;;;1999.90;999.90;;;;;;;;;;4952828;29;20236;-73
2021/09/15 12:05:31;;;;;;;1999.90;999.90;;;;;;;;;;4952148;29;20223;-72
2021/09/15 12:08:16;;;;;;;1999.90;999.90;;;;;;;;;;4952294;29;20489;-72
2021/09/15 12:11:03;;;;;;;1999.90;999.90;;;;;;;;;;4952789;29;20204;-74
2021/09/15 12:13:52;;;;;;;1999.90;999.90;;;;;;;;;;4952727;29;20217;-71
2021/09/15 12:16:38;;;;;;;1999.90;999.90;;;;;;;;;;4952432;29;20247;-72
2021/09/15 12:19:23;;;;;;;1999.90;999.90;;;;;;;;;;4952658;29;20714;-74
2021/09/15 12:22:18;;;;;;;1999.90;999.90;;;;;;;;;;4952422;29;20695;-73
2021/09/15 12:25:05;;;;;;;1999.90;999.90;;;;;;;;;;4951770;29;20200;-72
2021/09/15 12:27:57;;;;;;;1999.90;999.90;;;;;;;;;;4952421;29;20209;-72
2021/09/15 12:30:46;;;;;;;1999.90;999.90;;;;;;;;;;4952566;29;20201;-73
2021/09/15 12:33:32;;;;;;;1999.90;999.90;;;;;;;;;;4952352;29;20229;-73
2021/09/15 12:36:18;;;;;;;1999.90;999.90;;;;;;;;;;4951716;29;20232;-73
2021/09/15 12:39:04;;;;;;;1999.90;999.90;;;;;;;;;;4952402;29;20208;-72
2021/09/15 12:41:50;;;;;;;1999.90;999.90;;;;;;;;;;4952112;29;20591;-72
2021/09/15 12:44:37;;;;;;;1999.90;999.90;;;;;;;;;;4951437;29;20204;-73
2021/09/15 12:47:32;;;;;;;1999.90;999.90;;;;;;;;;;4954666;28;20201;-75
2021/09/15 12:50:17;;;;;;;1999.90;999.90;;;;;;;;;;4956331;29;20251;-73
2021/09/15 12:53:08;;;;;;;1999.90;999.90;;;;;;;;;;4955942;29;20280;-73
2021/09/15 12:55:54;;;;;;;1999.90;999.90;;;;;;;;;;4955017;29;20276;-73
2021/09/15 12:58:39;;;;;;;1999.90;999.90;;;;;;;;;;4956049;29;20224;-72
2021/09/15 13:01:25;;;;;;;1999.90;999.90;;;;;;;;;;4956080;29;20252;-74
2021/09/15 13:04:12;;;;;;;1999.90;999.90;;;;;;;;;;4955212;29;20225;-71
2021/09/15 13:06:58;;;;;;;1999.90;999.90;;;;;;;;;;4955845;29;20208;-73
2021/09/15 13:09:43;;;;;;;1999.90;999.90;;;;;;;;;;4956053;29;20204;-72
2021/09/15 13:12:28;;;;;;;1999.90;999.90;;;;;;;;;;4955801;29;20228;-72
2021/09/15 13:15:13;;;;;;;1999.90;999.90;;;;;;;;;;4954964;29;20212;-73
2021/09/15 13:17:59;;;;;;;1999.90;999.90;;;;;;;;;;4955423;29;20366;-74
2021/09/15 13:20:45;;;;;;;1999.90;999.90;;;;;;;;;;4954066;29;20422;-72
2021/09/15 13:23:30;;;;;;;1999.90;999.90;;;;;;;;;;4955463;29;20213;-72
2021/09/15 13:26:18;;;;;;;1999.90;999.90;;;;;;;;;;4955113;29;20211;-72
2021/09/15 13:29:03;;;;;;;1999.90;999.90;;;;;;;;;;4955208;29;20213;-72
2021/09/15 13:31:48;;;;;;;1999.90;999.90;;;;;;;;;;4955436;29;20603;-72
2021/09/15 13:34:34;;;;;;;1999.90;999.90;;;;;;;;;;4954639;29;20306;-72
2021/09/15 13:37:19;;;;;;;1999.90;999.90;;;;;;;;;;4955076;29;20232;-74
2021/09/15 13:40:04;;;;;;;1999.90;999.90;;;;;;;;;;4955025;29;20213;-72
2021/09/15 13:42:50;;;;;;;1999.90;999.90;;;;;;;;;;4955253;29;20232;-73
2021/09/15 13:45:35;;;;;;;1999.90;999.90;;;;;;;;;;4954427;29;20486;-72
2021/09/15 13:48:20;;;;;;;1999.90;999.90;;;;;;;;;;4955019;29;20208;-73
2021/09/15 13:51:06;;;;;;;1999.90;999.90;;;;;;;;;;4954766;29;20607;-72
2021/09/15 13:53:51;;;;;;;1999.90;999.90;;;;;;;;;;4954667;29;20204;-72
2021/09/15 13:56:36;;;;;;;1999.90;999.90;;;;;;;;;;4954956;29;20621;-72
2021/09/15 13:59:20;;;;;;;1999.90;999.90;;;;;;;;;;4954987;29;20212;-73
2021/09/15 14:02:06;;;;;;;1999.90;999.90;;;;;;;;;;4954623;29;20244;-72
2021/09/15 14:04:51;;;;;;;1999.90;999.90;;;;;;;;;;4954105;29;20209;-72
2021/09/15 14:07:38;;;;;;;1999.90;999.90;;;;;;;;;;4954835;29;20287;-72
2021/09/15 14:10:24;;;;;;;1999.90;999.90;;;;;;;;;;4955079;29;20209;-73
2021/09/15 14:13:09;;;;;;;1999.90;999.90;;;;;;;;;;4954662;29;20237;-72
2021/09/15 14:15:54;;;;;;;1999.90;999.90;;;;;;;;;;4953815;29;20458;-72
2021/09/15 14:18:39;;;;;;;1999.90;999.90;;;;;;;;;;4954830;29;20272;-72
2021/09/15 14:21:24;;;;;;;1999.90;999.90;;;;;;;;;;4954514;29;20229;-73
2021/09/15 14:24:10;;;;;;;1999.90;999.90;;;;;;;;;;4953944;29;20754;-73
2021/09/15 14:26:55;;;;;;;1999.90;999.90;;;;;;;;;;4954422;29;20752;-73
2021/09/15 14:29:40;;;;;;;1999.90;999.90;;;;;;;;;;4954305;29;20505;-73
2021/09/15 14:32:25;;;;;;;1999.90;999.90;;;;;;;;;;4954263;29;20232;-72
2021/09/15 14:35:10;;;;;;;1999.90;999.90;;;;;;;;;;4956533;29;20220;-72
2021/09/15 14:37:55;;;;;;;1999.90;999.90;;;;;;;;;;4953986;29;20600;-72
2021/09/15 14:40:41;;;;;;;1999.90;999.90;;;;;;;;;;4954268;29;20755;-72
2021/09/15 14:43:26;;;;;;;1999.90;999.90;;;;;;;;;;4954316;29;20257;-72
2021/09/15 14:46:11;;;;;;;1999.90;999.90;;;;;;;;;;4954754;29;20344;-73
2021/09/15 14:48:56;;;;;;;1999.90;999.90;;;;;;;;;;4954356;29;20216;-73
2021/09/15 14:51:41;;;;;;;1999.90;999.90;;;;;;;;;;4953930;29;20356;-73
2021/09/15 14:54:26;;;;;;;1999.90;999.90;;;;;;;;;;4953549;29;20399;-73
2021/09/15 14:57:12;;;;;;;1999.90;999.90;;;;;;;;;;4953531;29;20223;-73
2021/09/15 14:59:57;;;;;;;1999.90;999.90;;;;;;;;;;4953889;29;20252;-73
2021/09/15 15:02:42;;;;;;;1999.90;999.90;;;;;;;;;;4953564;29;20239;-73
2021/09/15 15:05:27;;;;;;;1999.90;999.90;;;;;;;;;;4953091;29;20715;-74
2021/09/15 15:08:12;;;;;;;1999.90;999.90;;;;;;;;;;4953664;29;20279;-73
2021/09/15 15:10:57;;;;;;;1999.90;999.90;;;;;;;;;;4953366;29;20268;-73
2021/09/15 15:13:43;;;;;;;1999.90;999.90;;;;;;;;;;4952745;29;20789;-73
2021/09/15 15:16:28;;;;;;;1999.90;999.90;;;;;;;;;;4953730;29;20224;-74
2021/09/15 15:19:13;;;;;;;1999.90;999.90;;;;;;;;;;4953233;29;20260;-74
2021/09/15 15:21:58;;;;;;;1999.90;999.90;;;;;;;;;;4953338;29;20240;-73
2021/09/15 15:24:43;;;;;;;1999.90;999.90;;;;;;;;;;4952722;29;20212;-73
2021/09/15 15:27:28;;;;;;;1999.90;999.90;;;;;;;;;;4953568;29;20204;-74
2021/09/15 15:30:15;;;;;;;1999.90;999.90;;;;;;;;;;4953141;29;20228;-73
2021/09/15 15:33:00;;;;;;;1999.90;999.90;;;;;;;;;;4953444;29;20233;-73